Time;durP1;ratioP1;P1;durP2;ratioP2;P2;SDS_P1;SDS_P2;PMS_P1;PMS_P2;Temp;Humidity;BMP_temperature;BMP_pressure;BME280_temperature;BME280_humidity;BME280_pressure;Samples;Min_cycle;Max_cycle;Signal;HPM_P1;HPM_P2
2022/06/05 00:01:46;;;;;;;;;;;;;;;12.52;100.00;102157.47;4991820;28;19922;-29
2022/06/05 00:04:22;;;;;;;;;;;;;;;12.51;100.00;102134.22;4992531;28;20346;-30
2022/06/05 00:06:53;;;;;;;;;;;;;;;12.50;100.00;102117.72;4991594;28;19925;-30
2022/06/05 00:09:30;;;;;;;;;;;;;;;12.46;100.00;102109.03;4992671;28;20020;-35
2022/06/05 00:12:03;;;;;;;;;;;;;;;12.46;100.00;102103.44;4992365;28;20645;-29
2022/06/05 00:14:31;;;;;;;;;;;;;;;12.44;100.00;102102.88;4991699;28;20375;-32
2022/06/05 00:17:00;;;;;;;;;;;;;;;12.43;100.00;102104.84;4991920;28;19922;-34
2022/06/05 00:19:30;;;;;;;;;;;;;;;12.43;100.00;102090.00;4992142;28;20016;-36
2022/06/05 00:21:58;;;;;;;;;;;;;;;12.45;100.00;102096.16;4991749;28;20318;-33
2022/06/05 00:24:26;;;;;;;;;;;;;;;12.45;100.00;102081.31;4992414;28;19953;-34
2022/06/05 00:26:57;;;;;;;;;;;;;;;12.42;100.00;102086.34;4992050;28;20454;-34
2022/06/05 00:29:33;;;;;;;;;;;;;;;12.40;100.00;102080.19;4991645;28;19991;-35
2022/06/05 00:32:08;;;;;;;;;;;;;;;12.41;100.00;102086.63;4992177;28;19945;-34
2022/06/05 00:34:36;;;;;;;;;;;;;;;12.40;100.00;102076.56;4991877;28;19926;-34
2022/06/05 00:37:10;;;;;;;;;;;;;;;12.40;100.00;102070.97;4992194;28;19961;-31
2022/06/05 00:39:43;;;;;;;;;;;;;;;12.40;100.00;102062.56;4992268;28;19921;-30
2022/06/05 00:42:12;;;;;;;;;;;;;;;12.39;100.00;102060.88;4991444;28;19922;-34
2022/06/05 00:44:42;;;;;;;;;;;;;;;12.39;100.00;102049.69;4992314;28;20450;-30
2022/06/05 00:47:12;;;;;;;;;;;;;;;12.39;100.00;102046.88;4992180;28;19957;-31
2022/06/05 00:49:41;;;;;;;;;;;;;;;12.39;100.00;102046.88;4991423;28;20398;-30
2022/06/05 00:52:10;;;;;;;;;;;;;;;12.40;100.00;102041.00;4991950;28;19926;-31
2022/06/05 00:54:38;;;;;;;;;;;;;;;12.39;100.00;102042.13;4991956;28;20016;-29
2022/06/05 00:57:07;;;;;;;;;;;;;;;12.39;100.00;102044.91;4990977;28;20027;-30
2022/06/05 00:59:35;;;;;;;;;;;;;;;12.41;100.00;102044.63;4993187;28;19922;-30
2022/06/05 01:02:03;;;;;;;;;;;;;;;12.41;100.00;102039.03;4995562;28;20126;-31
2022/06/05 01:04:33;;;;;;;;;;;;;;;12.41;100.00;102039.03;4994876;28;19926;-33
2022/06/05 01:07:01;;;;;;;;;;;;;;;12.41;100.00;102034.28;4995412;28;19961;-30
2022/06/05 01:09:28;;;;;;;;;;;;;;;12.41;100.00;102039.88;4995176;28;19967;-29
2022/06/05 01:12:03;;;;;;;;;;;;;;;12.42;100.00;102033.16;4994753;28;19928;-33
2022/06/05 01:14:37;;;;;;;;;;;;;;;12.42;100.00;102019.16;4995482;28;19921;-30
2022/06/05 01:17:09;;;;;;;;;;;;;;;12.43;100.00;102040.44;4994367;28;20009;-29
2022/06/05 01:19:42;;;;;;;;;;;;;;;12.40;100.00;102024.22;4995300;28;20016;-29
2022/06/05 01:22:22;;;;;;;;;;;;;;;12.42;100.00;102040.72;4993706;28;20299;-29
2022/06/05 01:25:00;;;;;;;;;;;;;;;12.41;100.00;102033.44;4994634;28;20016;-30
2022/06/05 01:27:31;;;;;;;;;;;;;;;12.42;100.00;102029.53;4995112;28;19936;-31
2022/06/05 01:30:02;;;;;;;;;;;;;;;12.43;100.00;102020.84;4995092;28;19921;-29
2022/06/05 01:32:32;;;;;;;;;;;;;;;12.44;100.00;102027.28;4994115;28;19922;-31
2022/06/05 01:35:05;;;;;;;;;;;;;;;12.43;100.00;102029.25;4995489;28;20008;-32
2022/06/05 01:37:36;;;;;;;;;;;;;;;12.45;100.00;102034.56;4994849;28;20261;-33
2022/06/05 01:40:06;;;;;;;;;;;;;;;12.46;100.00;102019.44;4993957;28;19925;-29
2022/06/05 01:42:38;;;;;;;;;;;;;;;12.46;100.00;102019.44;4994658;28;19936;-29
2022/06/05 01:45:08;;;;;;;;;;;;;;;12.46;100.00;102011.03;4993765;28;19925;-30
2022/06/05 01:47:38;;;;;;;;;;;;;;;12.44;100.00;102004.88;4994700;28;20474;-31
2022/06/05 01:50:09;;;;;;;;;;;;;;;12.44;100.00;102007.69;4994750;28;19925;-31
2022/06/05 01:52:39;;;;;;;;;;;;;;;12.44;100.00;101990.91;4994074;28;19928;-31
2022/06/05 01:55:13;;;;;;;;;;;;;;;12.42;100.00;101981.94;4994546;28;20031;-31
2022/06/05 01:57:42;;;;;;;;;;;;;;;12.40;100.00;101985.00;4994431;28;19921;-30
2022/06/05 02:00:12;;;;;;;;;;;;;;;12.39;100.00;101972.16;4993670;28;19929;-30
2022/06/05 02:02:43;;;;;;;;;;;;;;;12.39;100.00;101982.50;4994638;28;19961;-30
2022/06/05 02:05:14;;;;;;;;;;;;;;;12.39;100.00;101985.28;4994605;28;19929;-32
2022/06/05 02:07:45;;;;;;;;;;;;;;;12.38;100.00;101983.66;4993378;28;19960;-30
2022/06/05 02:10:16;;;;;;;;;;;;;;;12.38;100.00;101983.66;4994423;28;19925;-35
2022/06/05 02:12:45;;;;;;;;;;;;;;;12.38;100.00;101975.25;4993777;28;19922;-31
2022/06/05 02:15:12;;;;;;;;;;;;;;;12.39;100.00;101969.34;4993707;28;19921;-32
2022/06/05 02:17:40;;;;;;;;;;;;;;;12.40;100.00;101971.03;4994041;28;20355;-30
2022/06/05 02:20:09;;;;;;;;;;;;;;;12.41;100.00;101977.47;4993273;28;20398;-30
2022/06/05 02:22:38;;;;;;;;;;;;;;;12.41;100.00;101966.25;4994198;28;20016;-30
2022/06/05 02:25:06;;;;;;;;;;;;;;;12.43;100.00;101976.06;4993859;28;19930;-31
2022/06/05 02:27:34;;;;;;;;;;;;;;;12.45;100.00;101966.53;4993383;28;19922;-32
2022/06/05 02:30:03;;;;;;;;;;;;;;;12.45;100.00;101956.19;4993918;28;19921;-30
2022/06/05 02:32:39;;;;;;;;;;;;;;;12.46;100.00;101951.41;4993758;28;20012;-30
2022/06/05 02:35:12;;;;;;;;;;;;;;;12.45;100.00;101956.19;4993261;28;19941;-31
2022/06/05 02:37:44;;;;;;;;;;;;;;;12.45;100.00;101966.53;4993815;28;19926;-30
2022/06/05 02:40:15;;;;;;;;;;;;;;;12.43;100.00;101958.41;4993754;28;20353;-36
2022/06/05 02:42:51;;;;;;;;;;;;;;;12.45;100.00;101956.19;4992948;28;19926;-32
2022/06/05 02:45:23;;;;;;;;;;;;;;;12.45;100.00;101950.56;4993736;28;20034;-30
2022/06/05 02:47:54;;;;;;;;;;;;;;;12.47;100.00;101953.09;4994228;28;19922;-37
2022/06/05 02:50:26;;;;;;;;;;;;;;;12.47;100.00;101947.50;4992963;28;19929;-35
2022/06/05 02:52:59;;;;;;;;;;;;;;;12.46;100.00;101952.25;4993517;28;19928;-32
2022/06/05 02:55:27;;;;;;;;;;;;;;;12.47;100.00;101950.28;4992575;28;19922;-31
2022/06/05 02:57:55;;;;;;;;;;;;;;;12.50;100.00;101944.13;4993267;28;19953;-35
2022/06/05 03:00:25;;;;;;;;;;;;;;;12.50;100.00;101927.34;4993194;28;19922;-31
2022/06/05 03:05:38;;;;;;;;;;;;;;;12.51;100.00;101927.03;4993346;28;19929;-30
2022/06/05 03:08:06;;;;;;;;;;;;;;;12.52;100.00;101934.31;4992855;28;19932;-32
2022/06/05 03:10:34;;;;;;;;;;;;;;;12.53;100.00;101913.59;4992182;28;20379;-30
2022/06/05 03:13:01;;;;;;;;;;;;;;;12.54;100.00;101914.44;4992369;28;19926;-30
2022/06/05 03:15:30;;;;;;;;;;;;;;;12.55;100.00;101916.13;4990925;28;19933;-33
2022/06/05 03:17:58;;;;;;;;;;;;;;;12.55;100.00;101904.91;4990610;28;19993;-36
2022/06/05 03:20:26;;;;;;;;;;;;;;;12.55;100.00;101902.97;4991549;28;19980;-34
2022/06/05 03:22:54;;;;;;;;;;;;;;;12.58;100.00;101899.59;4992104;28;19931;-35
2022/06/05 03:25:23;;;;;;;;;;;;;;;12.58;100.00;101894.00;4991826;28;19921;-33
2022/06/05 03:27:53;;;;;;;;;;;;;;;12.59;100.00;101890.03;4992907;28;19922;-31
2022/06/05 03:30:21;;;;;;;;;;;;;;;12.61;100.00;101882.19;4992136;28;19922;-35
2022/06/05 03:32:50;;;;;;;;;;;;;;;12.64;100.00;101876.00;4991278;28;19932;-33
2022/06/05 03:35:18;;;;;;;;;;;;;;;12.66;100.00;101878.53;4991658;28;20306;-34
2022/06/05 03:37:46;;;;;;;;;;;;;;;12.67;100.00;101867.03;4991553;28;19937;-29
2022/06/05 03:40:15;;;;;;;;;;;;;;;12.70;100.00;101858.06;4992347;28;20379;-29
2022/06/05 03:42:43;;;;;;;;;;;;;;;12.72;100.00;101853.00;4992365;28;19921;-28
2022/06/05 03:45:12;;;;;;;;;;;;;;;12.73;100.00;101845.44;4991635;28;19921;-29
2022/06/05 03:47:39;;;;;;;;;;;;;;;12.75;100.00;101849.63;4992443;28;20391;-29
2022/06/05 03:50:10;;;;;;;;;;;;;;;12.77;100.00;101841.78;4992571;28;19922;-30
2022/06/05 03:52:38;;;;;;;;;;;;;;;12.79;100.00;101838.66;4992008;28;19933;-28
2022/06/05 03:55:05;;;;;;;;;;;;;;;12.81;100.00;101841.19;4992449;28;19936;-32
2022/06/05 03:57:33;;;;;;;;;;;;;;;12.84;100.00;101846.22;4992398;28;19922;-31
2022/06/05 04:00:01;;;;;;;;;;;;;;;12.86;100.00;101842.00;4991670;28;19925;-35
2022/06/05 04:02:38;;;;;;;;;;;;;;;12.88;100.00;101827.69;4992332;28;19922;-32
2022/06/05 04:05:07;;;;;;;;;;;;;;;12.90;100.00;101831.88;4992361;28;19921;-31
2022/06/05 04:07:36;;;;;;;;;;;;;;;12.92;100.00;101828.78;4991697;28;20008;-31
2022/06/05 04:10:04;;;;;;;;;;;;;;;12.93;100.00;101836.91;4992325;28;20491;-30
2022/06/05 04:12:31;;;;;;;;;;;;;;;12.94;100.00;101824.56;4992313;28;20291;-29
2022/06/05 04:15:00;;;;;;;;;;;;;;;12.98;100.00;101819.22;4991414;28;19926;-29
2022/06/05 04:17:27;;;;;;;;;;;;;;;13.00;100.00;101811.34;4992063;28;19921;-30
2022/06/05 04:19:55;;;;;;;;;;;;;;;13.00;100.00;101805.75;4991547;28;19922;-29
2022/06/05 04:22:22;;;;;;;;;;;;;;;13.02;100.00;101806.28;4992283;28;19921;-29
2022/06/05 04:24:51;;;;;;;;;;;;;;;13.03;100.00;101802.34;4992141;28;19928;-30
2022/06/05 04:27:19;;;;;;;;;;;;;;;13.05;100.00;101803.75;4991148;28;20020;-29
2022/06/05 04:29:47;;;;;;;;;;;;;;;13.09;100.00;101813.25;4992088;28;19929;-30
2022/06/05 04:32:16;;;;;;;;;;;;;;;13.12;100.00;101809.03;4992296;28;19968;-29
2022/06/05 04:34:44;;;;;;;;;;;;;;;13.15;100.00;101808.47;4992909;28;20019;-29
2022/06/05 04:37:12;;;;;;;;;;;;;;;13.17;100.00;101803.41;4995965;28;19928;-29
2022/06/05 04:39:39;;;;;;;;;;;;;;;13.19;100.00;101800.31;4995884;28;19936;-29
2022/06/05 04:42:09;;;;;;;;;;;;;;;13.22;100.00;101808.94;4994987;28;19976;-29
2022/06/05 04:44:37;;;;;;;;;;;;;;;13.25;100.00;101807.53;4995868;28;20459;-30
2022/06/05 04:47:05;;;;;;;;;;;;;;;13.29;100.00;101815.06;4995249;28;20371;-29
2022/06/05 04:49:35;;;;;;;;;;;;;;;13.33;100.00;101813.34;4994252;28;19928;-29
2022/06/05 04:52:03;;;;;;;;;;;;;;;13.36;100.00;101821.19;4995167;28;19928;-30
2022/06/05 04:54:31;;;;;;;;;;;;;;;13.38;100.00;101827.31;4995519;28;19948;-29
2022/06/05 04:56:58;;;;;;;;;;;;;;;13.40;100.00;101825.03;4994342;28;20036;-29
2022/06/05 04:59:27;;;;;;;;;;;;;;;13.44;100.00;101820.53;4995188;28;19932;-30
2022/06/05 05:01:55;;;;;;;;;;;;;;;13.48;100.00;101820.78;4994569;28;20562;-31
2022/06/05 05:04:23;;;;;;;;;;;;;;;13.53;100.00;101817.09;4995146;28;19933;-29
2022/06/05 05:06:50;;;;;;;;;;;;;;;13.56;100.00;101813.69;4995101;28;19933;-29
2022/06/05 05:09:18;;;;;;;;;;;;;;;13.61;100.00;101805.22;4994414;28;19921;-29
2022/06/05 05:11:45;;;;;;;;;;;;;;;13.64;100.00;101804.63;4995175;28;19926;-31
2022/06/05 05:14:13;;;;;;;;;;;;;;;13.69;100.00;101801.78;4994579;28;19922;-29
2022/06/05 05:16:42;;;;;;;;;;;;;;;13.74;100.00;101790.50;4994213;28;19964;-30
2022/06/05 05:19:10;;;;;;;;;;;;;;;13.79;100.00;101785.63;4994600;28;20028;-29
2022/06/05 05:21:38;;;;;;;;;;;;;;;13.86;100.00;101785.28;4994512;28;19925;-29
2022/06/05 05:24:07;;;;;;;;;;;;;;;13.86;100.00;101782.50;4994373;28;20849;-31
2022/06/05 05:26:35;;;;;;;;;;;;;;;13.92;100.00;101781.31;4995153;28;19953;-30
2022/06/05 05:29:03;;;;;;;;;;;;;;;13.96;100.00;101782.38;4993570;28;19922;-30
2022/06/05 05:31:32;;;;;;;;;;;;;;;14.02;100.00;101771.91;4994170;28;20020;-30
2022/06/05 05:34:01;;;;;;;;;;;;;;;14.05;100.00;101765.69;4994697;28;20040;-30
2022/06/05 05:36:29;;;;;;;;;;;;;;;14.08;100.00;101765.94;4994777;28;19922;-29
2022/06/05 05:44:31;;;;;;;;;;;;;;;14.23;100.00;101766.84;4993844;28;20342;-29
2022/06/05 05:46:59;;;;;;;;;;;;;;;14.27;100.00;101765.13;4993303;28;19922;-29
2022/06/05 05:49:28;;;;;;;;;;;;;;;14.30;100.00;101762.56;4994490;28;19948;-29
2022/06/05 05:51:55;;;;;;;;;;;;;;;14.33;100.00;101758.31;4990492;28;19931;-29
2022/06/05 05:54:23;;;;;;;;;;;;;;;14.34;100.00;101757.16;4991837;28;20379;-29
2022/06/05 05:56:51;;;;;;;;;;;;;;;14.37;100.00;101765.00;4993981;28;19922;-31
2022/06/05 05:59:19;;;;;;;;;;;;;;;14.36;100.00;101768.94;4993481;28;19922;-29
2022/06/05 06:01:47;;;;;;;;;;;;;;;14.36;100.00;101755.75;4993947;28;20016;-29
2022/06/05 06:04:15;;;;;;;;;;;;;;;14.39;100.00;101757.06;4993100;28;19926;-29
2022/06/05 06:06:45;;;;;;;;;;;;;;;14.41;100.00;101763.25;4992622;28;20442;-29
2022/06/05 06:09:13;;;;;;;;;;;;;;;14.42;100.00;101765.75;4994222;28;19922;-31
2022/06/05 06:11:41;;;;;;;;;;;;;;;14.44;100.00;101768.28;4994235;28;20306;-30
2022/06/05 06:14:08;;;;;;;;;;;;;;;14.44;100.00;101774.72;4993157;28;20522;-29
2022/06/05 06:16:36;;;;;;;;;;;;;;;14.47;100.00;101773.28;4993950;28;19976;-30
2022/06/05 06:19:04;;;;;;;;;;;;;;;14.51;100.00;101776.34;4993954;28;19957;-30
2022/06/05 06:21:32;;;;;;;;;;;;;;;14.53;100.00;101769.28;4993021;28;19922;-32
2022/06/05 06:24:08;;;;;;;;;;;;;;;14.54;100.00;101773.75;4992851;28;20340;-30
2022/06/05 06:26:36;;;;;;;;;;;;;;;14.56;100.00;101760.25;4992821;28;20755;-29
2022/06/05 06:29:03;;;;;;;;;;;;;;;14.59;100.00;101764.44;4993237;28;19928;-29
2022/06/05 06:31:31;;;;;;;;;;;;;;;14.62;100.00;101758.16;4993289;28;19922;-30
2022/06/05 06:33:59;;;;;;;;;;;;;;;14.65;100.00;101752.78;4992770;28;19928;-30
2022/06/05 06:36:26;;;;;;;;;;;;;;;14.69;100.00;101753.00;4991423;28;20380;-31
2022/06/05 06:39:15;;;;;;;;;;;;;;;14.72;100.00;101749.59;4992586;28;19921;-29
2022/06/05 06:41:43;;;;;;;;;;;;;;;14.76;100.00;101742.22;4992308;28;19922;-29
2022/06/05 06:44:11;;;;;;;;;;;;;;;14.80;100.00;101746.91;4993134;28;20013;-29
2022/06/05 06:46:38;;;;;;;;;;;;;;;14.83;100.00;101749.13;4993003;28;19961;-28
2022/06/05 06:49:06;;;;;;;;;;;;;;;14.89;100.00;101735.81;4992345;28;19932;-29
2022/06/05 06:51:34;;;;;;;;;;;;;;;14.91;100.00;101741.13;4992922;28;19922;-29
2022/06/05 06:54:01;;;;;;;;;;;;;;;14.95;100.00;101733.78;4993117;28;19926;-30
2022/06/05 06:56:31;;;;;;;;;;;;;;;15.00;100.00;101722.41;4992333;28;19965;-30
2022/06/05 06:59:00;;;;;;;;;;;;;;;15.05;100.00;101728.78;4992768;28;19922;-28
2022/06/05 07:01:27;;;;;;;;;;;;;;;15.11;100.00;101715.47;4992018;28;20314;-29
2022/06/05 07:03:55;;;;;;;;;;;;;;;15.17;100.00;101711.44;4992177;28;19928;-30
2022/06/05 07:06:23;;;;;;;;;;;;;;;15.21;100.00;101714.44;4992485;28;19922;-29
2022/06/05 07:08:51;;;;;;;;;;;;;;;15.25;100.00;101710.72;4992294;28;19925;-29
2022/06/05 07:11:19;;;;;;;;;;;;;;;15.28;100.00;101718.53;4992911;28;20389;-29
2022/06/05 07:13:50;;;;;;;;;;;;;;;15.31;100.00;101703.84;4992899;28;19923;-29
2022/06/05 07:16:19;;;;;;;;;;;;;;;15.34;100.00;101703.25;4992145;28;19932;-30
2022/06/05 07:18:47;;;;;;;;;;;;;;;15.36;100.00;101697.31;4992926;28;19921;-29
2022/06/05 07:21:16;;;;;;;;;;;;;;;15.38;100.00;101693.03;4991416;28;20271;-29
2022/06/05 07:23:43;;;;;;;;;;;;;;;15.37;100.00;101696.16;4992034;28;19922;-29
2022/06/05 07:26:13;;;;;;;;;;;;;;;15.37;100.00;101691.38;4992689;28;19926;-29
2022/06/05 07:28:41;;;;;;;;;;;;;;;15.39;100.00;101691.88;4992678;28;19932;-29
2022/06/05 07:31:11;;;;;;;;;;;;;;;15.41;100.00;101688.75;4992224;28;20253;-29
2022/06/05 07:33:41;;;;;;;;;;;;;;;15.43;100.00;101681.66;4992626;28;19922;-30
2022/06/05 07:36:10;;;;;;;;;;;;;;;15.43;100.00;101683.66;4992082;28;19929;-29
2022/06/05 07:38:39;;;;;;;;;;;;;;;15.42;100.00;101676.34;4991892;28;19929;-30
2022/06/05 07:41:07;;;;;;;;;;;;;;;15.43;100.00;101675.22;4991596;28;19925;-30
2022/06/05 07:43:35;;;;;;;;;;;;;;;15.43;100.00;101673.22;4992637;28;19921;-29
2022/06/05 07:46:03;;;;;;;;;;;;;;;15.44;100.00;101668.44;4992298;28;19976;-29
2022/06/05 07:48:32;;;;;;;;;;;;;;;15.47;100.00;101667.81;4992671;28;19933;-29
2022/06/05 07:56:31;;;;;;;;;;;;;;;15.52;100.00;101659.28;4992612;28;19932;-29
2022/06/05 07:58:58;;;;;;;;;;;;;;;15.57;100.00;101652.75;4991540;28;19921;-29
2022/06/05 08:01:46;;;;;;;;;;;;;;;15.61;100.00;101646.16;4992033;28;20387;-29
2022/06/05 08:04:15;;;;;;;;;;;;;;;15.68;100.00;101640.13;4990849;28;19926;-29
2022/06/05 08:06:47;;;;;;;;;;;;;;;15.75;100.00;101637.72;4991152;28;20287;-30
2022/06/05 08:09:15;;;;;;;;;;;;;;;15.77;100.00;101636.25;4993013;28;19931;-29
2022/06/05 08:11:45;;;;;;;;;;;;;;;15.83;100.00;101631.34;4995527;28;19929;-29
2022/06/05 08:14:14;;;;;;;;;;;;;;;15.88;100.00;101619.97;4996132;28;19921;-30
2022/06/05 08:16:43;;;;;;;;;;;;;;;15.90;100.00;101616.84;4995805;28;20370;-31
2022/06/05 08:19:12;;;;;;;;;;;;;;;15.94;100.00;101612.25;4995361;28;20256;-30
2022/06/05 08:21:41;;;;;;;;;;;;;;;16.01;100.00;101610.63;4995961;28;20024;-29
2022/06/05 08:24:09;;;;;;;;;;;;;;;16.07;100.00;101612.19;4995788;28;19936;-34
2022/06/05 08:26:37;;;;;;;;;;;;;;;16.12;100.00;101599.97;4994882;28;20454;-33
2022/06/05 08:29:05;;;;;;;;;;;;;;;16.17;100.00;101603.50;4995917;28;19921;-36
2022/06/05 08:31:33;;;;;;;;;;;;;;;16.22;100.00;101596.06;4996009;28;19921;-30
2022/06/05 08:34:01;;;;;;;;;;;;;;;16.24;100.00;101588.13;4995173;28;20426;-29
2022/06/05 08:36:29;;;;;;;;;;;;;;;16.28;100.00;101586.34;4995733;28;19969;-29
2022/06/05 08:41:52;;;;;;;;;;;;;;;16.37;100.00;101579.66;4992820;28;19929;-29
2022/06/05 08:44:30;;;;;;;;;;;;;;;16.43;100.00;101583.13;4995610;28;19932;-29
2022/06/05 08:47:01;;;;;;;;;;;;;;;16.48;100.00;101577.38;4994715;28;19922;-29
2022/06/05 08:49:35;;;;;;;;;;;;;;;16.53;100.00;101574.44;4995548;28;19926;-30
2022/06/05 08:52:06;;;;;;;;;;;;;;;16.60;100.00;101577.59;4993865;28;19929;-29
2022/06/05 08:54:39;;;;;;;;;;;;;;;16.64;100.00;101566.56;4994923;28;19976;-30
2022/06/05 08:57:11;;;;;;;;;;;;;;;16.69;100.00;101572.06;4994626;28;20292;-29
2022/06/05 08:59:44;;;;;;;;;;;;;;;16.72;100.00;101568.59;4995082;28;19941;-29
2022/06/05 09:02:17;;;;;;;;;;;;;;;16.77;100.00;101569.31;4994564;28;19932;-28
2022/06/05 09:04:49;;;;;;;;;;;;;;;16.84;100.00;101564.03;4995932;28;20291;-29
2022/06/05 09:07:19;;;;;;;;;;;;;;;16.94;100.00;101573.38;4995219;28;19926;-29
2022/06/05 09:09:51;;;;;;;;;;;;;;;16.99;100.00;101565.56;4994916;28;19921;-29
2022/06/05 09:12:24;;;;;;;;;;;;;;;17.08;100.00;101562.78;4995318;28;20025;-29
2022/06/05 09:14:55;;;;;;;;;;;;;;;17.16;100.00;101562.84;4995255;28;19944;-30
2022/06/05 09:17:24;;;;;;;;;;;;;;;17.25;100.00;101564.84;4994447;28;20013;-29
2022/06/05 09:19:52;;;;;;;;;;;;;;;17.31;100.00;101557.91;4994837;28;19936;-29
2022/06/05 09:22:24;;;;;;;;;;;;;;;17.38;100.00;101559.09;4993769;28;20281;-29
2022/06/05 09:25:18;;;;;;;;;;;;;;;17.43;100.00;101558.09;4995066;28;19928;-29
2022/06/05 09:28:03;;;;;;;;;;;;;;;17.42;100.00;101548.78;4971041;28;19944;-28
2022/06/05 09:30:33;;;;;;;;;;;;;;;17.44;100.00;101542.81;4994124;28;19926;-29
2022/06/05 09:33:06;;;;;;;;;;;;;;;17.46;100.00;101554.59;4994429;28;20343;-29
2022/06/05 09:35:36;;;;;;;;;;;;;;;17.47;100.00;101551.47;4994211;28;19922;-28
2022/06/05 09:38:07;;;;;;;;;;;;;;;17.48;100.00;101538.19;4993414;28;19922;-28
2022/06/05 09:40:40;;;;;;;;;;;;;;;17.49;100.00;101537.84;4993890;28;20295;-30
2022/06/05 09:43:22;;;;;;;;;;;;;;;17.51;100.00;101529.91;4993160;28;19929;-30
2022/06/05 09:46:08;;;;;;;;;;;;;;;17.55;100.00;101539.38;4985818;28;19932;-30
2022/06/05 09:48:40;;;;;;;;;;;;;;;17.56;100.00;101529.75;4993487;28;19933;-30
2022/06/05 09:51:10;;;;;;;;;;;;;;;17.60;100.00;101524.25;4993113;28;19921;-30
2022/06/05 09:53:42;;;;;;;;;;;;;;;17.63;100.00;101526.41;4993409;28;19925;-30
2022/06/05 09:56:16;;;;;;;;;;;;;;;17.65;100.00;101526.09;4993128;28;20076;-30
2022/06/05 09:58:51;;;;;;;;;;;;;;;17.65;100.00;101531.75;4992397;28;19925;-30
2022/06/05 10:01:28;;;;;;;;;;;;;;;17.67;100.00;101520.97;4993005;28;19941;-29
2022/06/05 10:03:57;;;;;;;;;;;;;;;17.70;100.00;101521.16;4993557;28;19922;-31
2022/06/05 10:06:28;;;;;;;;;;;;;;;17.72;100.00;101523.63;4992306;28;19932;-30
2022/06/05 10:08:57;;;;;;;;;;;;;;;17.77;100.00;101524.31;4993134;28;19921;-36
2022/06/05 10:11:27;;;;;;;;;;;;;;;17.76;100.00;101516.16;4992330;28;19926;-31
2022/06/05 10:14:01;;;;;;;;;;;;;;;17.79;100.00;101521.97;4993232;28;19922;-29
2022/06/05 10:16:34;;;;;;;;;;;;;;;17.83;100.00;101525.78;4992868;28;20036;-30
2022/06/05 10:19:07;;;;;;;;;;;;;;;17.89;100.00;101523.63;4992199;28;20017;-29
2022/06/05 10:21:37;;;;;;;;;;;;;;;17.94;100.00;101519.81;4992988;28;19929;-29
2022/06/05 10:24:15;;;;;;;;;;;;;;;17.96;100.00;101506.19;4993105;28;19922;-30
2022/06/05 10:26:47;;;;;;;;;;;;;;;18.00;100.00;101502.34;4992660;28;19929;-32
2022/06/05 10:29:18;;;;;;;;;;;;;;;18.07;100.00;101502.69;4992930;28;19926;-29
2022/06/05 10:31:53;;;;;;;;;;;;;;;18.12;100.00;101505.34;4991272;28;19922;-29
2022/06/05 10:34:23;;;;;;;;;;;;;;;18.19;100.00;101504.81;4991165;28;19926;-36
2022/06/05 10:36:55;;;;;;;;;;;;;;;18.25;100.00;101504.31;4991451;28;19932;-32
2022/06/05 10:39:26;;;;;;;;;;;;;;;18.30;100.00;101499.66;4992922;28;19933;-36
2022/06/05 10:42:03;;;;;;;;;;;;;;;18.34;100.00;101495.84;4992159;28;19921;-38
2022/06/05 10:44:36;;;;;;;;;;;;;;;18.39;100.00;101500.44;4992601;28;19928;-37
2022/06/05 10:47:10;;;;;;;;;;;;;;;18.47;100.00;101493.97;4991931;28;19926;-37
2022/06/05 10:49:43;;;;;;;;;;;;;;;18.54;100.00;101494.28;4992402;28;19921;-34
2022/06/05 10:52:15;;;;;;;;;;;;;;;18.57;100.00;101487.97;4992206;28;20376;-35
2022/06/05 10:54:48;;;;;;;;;;;;;;;18.62;100.00;101496.25;4991648;28;19922;-34
2022/06/05 10:57:18;;;;;;;;;;;;;;;18.67;100.00;101493.25;4992516;28;19925;-35
2022/06/05 10:59:51;;;;;;;;;;;;;;;18.72;100.00;101489.41;4991795;28;20375;-32
2022/06/05 11:02:43;;;;;;;;;;;;;;;18.80;100.00;101497.00;4991440;28;19926;-34
2022/06/05 11:05:21;;;;;;;;;;;;;;;18.84;100.00;101486.69;4981379;28;19926;-33
2022/06/05 11:07:54;;;;;;;;;;;;;;;18.87;100.00;101486.84;4991486;28;19926;-32
2022/06/05 11:16:09;;;;;;;;;;;;;;;19.09;100.00;101476.41;4991161;28;19926;-32
2022/06/05 11:18:42;;;;;;;;;;;;;;;19.13;100.00;101469.75;4991042;28;19925;-32
2022/06/05 11:21:13;;;;;;;;;;;;;;;19.18;100.00;101471.53;4991824;28;20254;-34
2022/06/05 11:23:49;;;;;;;;;;;;;;;19.24;100.00;101467.31;4990871;28;19975;-32
2022/06/05 11:26:21;;;;;;;;;;;;;;;19.32;100.00;101457.97;4991884;28;19925;-33
2022/06/05 11:28:52;;;;;;;;;;;;;;;19.39;100.00;101466.72;4991335;28;19930;-31
2022/06/05 11:31:27;;;;;;;;;;;;;;;19.41;100.00;101455.88;4991753;28;19922;-30
2022/06/05 11:33:58;;;;;;;;;;;;;;;19.50;100.00;101458.69;4991086;28;20028;-29
2022/06/05 11:36:31;;;;;;;;;;;;;;;19.60;100.00;101447.75;4988874;28;19932;-31
2022/06/05 11:39:03;;;;;;;;;;;;;;;19.72;100.00;101454.66;4991681;28;19922;-30
2022/06/05 11:41:36;;;;;;;;;;;;;;;19.76;100.00;101455.66;4991221;28;19932;-30
2022/06/05 11:44:15;;;;;;;;;;;;;;;19.81;100.00;101456.25;4990832;28;19931;-30
2022/06/05 11:46:49;;;;;;;;;;;;;;;19.85;100.00;101459.22;4991306;28;20364;-29
2022/06/05 11:49:20;;;;;;;;;;;;;;;19.82;100.00;101454.22;4991576;28;20441;-29
2022/06/05 11:52:03;;;;;;;;;;;;;;;19.86;100.00;101452.38;4990793;28;19922;-29
2022/06/05 11:54:33;;;;;;;;;;;;;;;19.91;100.00;101444.50;4991548;28;19929;-31
2022/06/05 11:57:07;;;;;;;;;;;;;;;19.96;100.00;101449.13;4990271;28;19926;-32
2022/06/05 11:59:39;;;;;;;;;;;;;;;20.03;100.00;101449.34;4991311;28;20378;-30
2022/06/05 12:02:29;;;;;;;;;;;;;;;20.09;100.00;101445.13;4991226;28;19922;-29
2022/06/05 12:05:00;;;;;;;;;;;;;;;20.08;100.00;101443.47;4990870;28;19922;-39
2022/06/05 12:07:29;;;;;;;;;;;;;;;20.02;100.00;101442.03;4991297;28;20282;-33
2022/06/05 12:09:59;;;;;;;;;;;;;;;19.94;100.00;101440.13;4991206;28;19925;-32
2022/06/05 12:12:29;;;;;;;;;;;;;;;19.88;100.00;101442.34;4990715;28;19928;-33
2022/06/05 12:15:00;;;;;;;;;;;;;;;19.85;100.00;101431.72;4991810;28;19922;-29
2022/06/05 12:17:31;;;;;;;;;;;;;;;19.84;100.00;101434.88;4991855;28;20382;-30
2022/06/05 12:20:01;;;;;;;;;;;;;;;19.88;100.00;101433.03;4991338;28;19922;-37
2022/06/05 12:22:34;;;;;;;;;;;;;;;19.87;100.00;101434.19;4991879;28;19925;-37
2022/06/05 12:25:07;;;;;;;;;;;;;;;19.90;100.00;101434.34;4991610;28;19925;-30
2022/06/05 12:27:43;;;;;;;;;;;;;;;19.94;100.00;101440.97;4992349;28;19925;-37
2022/06/05 12:30:16;;;;;;;;;;;;;;;19.99;100.00;101434.22;4991502;28;19993;-32
2022/06/05 12:32:49;;;;;;;;;;;;;;;20.02;100.00;101433.53;4990743;28;19921;-30
2022/06/05 12:35:21;;;;;;;;;;;;;;;20.04;100.00;101438.84;4988045;28;19948;-32
2022/06/05 12:37:52;;;;;;;;;;;;;;;20.10;100.00;101438.28;4989970;28;20345;-34
2022/06/05 12:40:21;;;;;;;;;;;;;;;20.19;100.00;101433.34;4990773;28;19921;-34
2022/06/05 12:42:51;;;;;;;;;;;;;;;20.33;100.00;101435.03;4991812;28;20020;-35
2022/06/05 12:45:23;;;;;;;;;;;;;;;20.41;100.00;101432.13;4991805;28;20478;-39
2022/06/05 12:47:59;;;;;;;;;;;;;;;20.52;100.00;101426.84;4991267;28;19921;-36
2022/06/05 12:50:36;;;;;;;;;;;;;;;20.64;100.00;101421.16;4990715;28;20313;-36
2022/06/05 12:53:13;;;;;;;;;;;;;;;20.74;100.00;101419.88;4991096;28;20016;-42
2022/06/05 12:55:44;;;;;;;;;;;;;;;20.83;100.00;101418.56;4992894;28;20024;-32
2022/06/05 12:58:18;;;;;;;;;;;;;;;20.90;100.00;101420.81;4995164;28;20295;-31
2022/06/05 13:00:49;;;;;;;;;;;;;;;20.90;100.00;101410.28;4994449;28;19926;-31
2022/06/05 13:03:20;;;;;;;;;;;;;;;20.94;100.00;101407.56;4995346;28;20327;-29
2022/06/05 13:05:51;;;;;;;;;;;;;;;21.02;100.00;101405.78;4994859;28;19926;-32
2022/06/05 13:08:30;;;;;;;;;;;;;;;21.12;100.00;101402.47;4994896;28;19921;-29